Time;durP1;ratioP1;P1;durP2;ratioP2;P2;SDS_P1;SDS_P2;PMS_P1;PMS_P2;Temp;Humidity;BMP_temperature;BMP_pressure;BME280_temperature;BME280_humidity;BME280_pressure;Samples;Min_cycle;Max_cycle;Signal;HPM_P1;HPM_P2
2021/07/27 00:01:44;;;;;;;3.30;2.22;;;19.90;74.40;;;;;;4350967;32;20441;-71
2021/07/27 00:04:10;;;;;;;2.72;2.22;;;19.80;74.60;;;;;;4362804;32;20512;-70
2021/07/27 00:06:36;;;;;;;2.35;2.00;;;19.90;74.30;;;;;;4376696;32;20078;-70
2021/07/27 00:09:02;;;;;;;2.72;2.17;;;19.90;73.90;;;;;;4375241;32;20062;-72
2021/07/27 00:11:28;;;;;;;3.45;2.40;;;19.80;75.30;;;;;;4374859;32;20066;-71
2021/07/27 00:13:54;;;;;;;2.75;2.20;;;19.80;76.20;;;;;;4375183;32;20062;-70
2021/07/27 00:16:20;;;;;;;3.83;2.42;;;19.80;75.40;;;;;;4362662;32;20460;-71
2021/07/27 00:18:47;;;;;;;2.97;2.30;;;19.80;76.80;;;;;;4362914;32;20097;-71
2021/07/27 00:21:13;;;;;;;4.22;2.40;;;19.80;78.00;;;;;;4362634;32;20074;-71
2021/07/27 00:23:39;;;;;;;5.18;2.67;;;19.40;87.90;;;;;;4362377;32;20062;-72
2021/07/27 00:26:12;;;;;;;3.90;2.37;;;19.30;88.70;;;;;;4362598;32;20077;-72
2021/07/27 00:28:39;;;;;;;3.85;2.37;;;19.30;89.50;;;;;;4350240;32;20497;-71
2021/07/27 00:31:06;;;;;;;4.72;2.40;;;19.70;80.90;;;;;;4375038;32;20093;-72
2021/07/27 00:33:32;;;;;;;3.12;2.47;;;19.60;81.00;;;;;;4350110;32;20537;-72
2021/07/27 00:36:00;;;;;;;3.08;2.50;;;19.60;81.50;;;;;;4376032;32;20577;-72
2021/07/27 00:38:26;;;;;;;3.28;2.40;;;19.60;79.00;;;;;;4350253;32;20074;-71
2021/07/27 00:40:52;;;;;;;3.28;2.50;;;19.60;79.70;;;;;;4374732;32;20067;-70
2021/07/27 00:43:21;;;;;;;3.37;2.60;;;19.70;77.40;;;;;;4362900;32;20085;-70
2021/07/27 00:45:48;;;;;;;3.80;2.12;;;19.50;80.30;;;;;;4350919;32;20089;-71
2021/07/27 00:48:14;;;;;;;3.17;2.15;;;19.60;79.20;;;;;;4362429;32;20125;-70
2021/07/27 00:50:40;;;;;;;3.15;2.20;;;19.70;77.90;;;;;;4374705;32;20122;-71
2021/07/27 00:53:06;;;;;;;2.90;2.20;;;19.60;78.70;;;;;;4362636;32;20515;-72
2021/07/27 00:55:33;;;;;;;3.58;2.20;;;19.50;79.30;;;;;;4350681;32;20098;-72
2021/07/27 00:57:59;;;;;;;4.35;2.30;;;19.60;78.30;;;;;;4362577;32;20062;-70
2021/07/27 01:00:26;;;;;;;3.10;2.33;;;19.40;80.30;;;;;;4349871;32;20087;-72
2021/07/27 01:02:52;;;;;;;4.72;2.50;;;19.40;80.10;;;;;;4362052;32;20475;-71
2021/07/27 01:05:19;;;;;;;3.42;2.45;;;19.50;78.40;;;;;;4350625;32;20106;-70
2021/07/27 01:07:45;;;;;;;3.03;2.12;;;19.40;80.90;;;;;;4351851;32;20090;-70
2021/07/27 01:10:14;;;;;;;4.20;2.37;;;19.40;77.70;;;;;;4353044;32;20472;-71
2021/07/27 01:12:40;;;;;;;2.53;2.10;;;19.60;76.70;;;;;;4365430;32;20159;-71
2021/07/27 01:15:08;;;;;;;2.42;2.22;;;19.50;75.20;;;;;;4365374;32;20147;-71
2021/07/27 01:17:34;;;;;;;3.40;2.30;;;19.50;75.20;;;;;;4352826;32;20089;-71
2021/07/27 01:39:23;;;;;;;3.92;2.55;;;19.80;71.10;;;;;;4367207;32;20537;-70
2021/07/27 01:44:36;;;;;;;4.37;2.67;;;19.80;71.10;;;;;;4368226;32;20522;-72
2021/07/27 01:47:02;;;;;;;4.72;2.28;;;19.90;69.30;;;;;;4353780;32;20082;-72
2021/07/27 01:49:28;;;;;;;3.60;2.30;;;20.00;69.50;;;;;;4352804;32;20066;-71
2021/07/27 01:51:54;;;;;;;5.57;2.62;;;19.90;70.60;;;;;;4352564;32;20069;-71
2021/07/27 01:54:40;;;;;;;4.03;2.35;;;20.00;71.20;;;;;;4377124;32;20500;-71
2021/07/27 01:57:08;;;;;;;3.15;2.67;;;20.00;70.90;;;;;;4366521;32;20605;-70
2021/07/27 01:59:36;;;;;;;4.03;2.60;;;20.20;70.20;;;;;;4365055;32;20149;-71
2021/07/27 02:02:02;;;;;;;3.30;2.35;;;20.20;70.90;;;;;;4364523;32;20074;-71
2021/07/27 02:04:29;;;;;;;3.78;2.33;;;20.10;72.60;;;;;;4376941;32;20074;-70
2021/07/27 02:06:55;;;;;;;3.62;2.35;;;20.10;72.30;;;;;;4364574;32;20090;-70
2021/07/27 02:09:21;;;;;;;4.20;2.80;;;20.20;71.20;;;;;;4352264;32;20074;-71
2021/07/27 02:11:49;;;;;;;4.43;2.78;;;20.20;72.40;;;;;;4364412;32;20171;-71
2021/07/27 02:14:17;;;;;;;3.33;2.60;;;20.20;74.30;;;;;;4352515;32;20086;-69
2021/07/27 02:16:43;;;;;;;5.20;2.85;;;20.30;79.10;;;;;;4352503;32;20075;-71
2021/07/27 02:19:09;;;;;;;4.97;2.42;;;20.20;81.80;;;;;;4376563;32;20159;-70
2021/07/27 02:21:35;;;;;;;4.10;2.58;;;20.20;83.10;;;;;;4351947;32;20074;-71
2021/07/27 02:24:02;;;;;;;6.87;2.83;;;20.20;83.90;;;;;;4376548;32;20097;-70
2021/07/27 02:26:29;;;;;;;3.83;2.60;;;20.20;80.70;;;;;;4351933;32;20175;-72
2021/07/27 02:28:55;;;;;;;5.68;2.83;;;20.20;81.70;;;;;;4364291;32;20090;-71
2021/07/27 02:31:32;;;;;;;6.35;2.60;;;20.10;80.80;;;;;;4376120;32;20536;-70
2021/07/27 02:33:59;;;;;;;3.97;2.80;;;20.00;84.10;;;;;;4365482;32;20092;-71
2021/07/27 02:36:25;;;;;;;3.85;2.42;;;20.00;85.40;;;;;;4376786;32;20170;-71
2021/07/27 02:38:51;;;;;;;3.65;2.85;;;20.00;84.10;;;;;;4351744;32;20089;-71
2021/07/27 02:41:20;;;;;;;4.93;2.35;;;20.10;83.00;;;;;;4351677;32;20082;-72
2021/07/27 02:43:46;;;;;;;4.75;2.60;;;20.00;84.50;;;;;;4376663;32;20452;-73
2021/07/27 02:46:12;;;;;;;5.07;2.70;;;20.10;84.50;;;;;;4377502;32;20172;-71
2021/07/27 02:48:46;;;;;;;3.25;2.47;;;20.00;86.30;;;;;;4376451;32;20094;-71
2021/07/27 02:51:12;;;;;;;3.87;2.45;;;20.00;85.00;;;;;;4376336;32;20082;-72
2021/07/27 02:53:38;;;;;;;4.00;2.60;;;20.00;84.70;;;;;;4377524;32;20177;-71
2021/07/27 02:56:04;;;;;;;3.25;2.60;;;20.10;86.00;;;;;;4363775;32;20081;-72
2021/07/27 02:58:31;;;;;;;3.85;2.70;;;20.10;87.80;;;;;;4364125;32;20097;-72
2021/07/27 03:00:59;;;;;;;3.20;2.37;;;20.20;87.20;;;;;;4351347;32;20518;-71
2021/07/27 03:03:25;;;;;;;3.72;2.53;;;20.20;85.60;;;;;;4351796;32;20491;-71
2021/07/27 03:06:00;;;;;;;5.37;2.65;;;20.30;85.00;;;;;;4376233;32;20082;-72
2021/07/27 03:09:30;;;;;;;4.65;2.40;;;20.20;85.10;;;;;;4364928;32;20082;-72
2021/07/27 03:11:23;;;;;;;5.68;2.60;;;20.30;84.80;;;;;;4369839;32;20074;-71
2021/07/27 03:13:49;;;;;;;8.23;2.80;;;20.40;82.90;;;;;;4375989;32;20170;-72
2021/07/27 03:16:21;;;;;;;5.70;2.75;;;20.60;84.10;;;;;;4363314;32;20081;-72
2021/07/27 03:18:49;;;;;;;6.93;2.70;;;20.60;84.40;;;;;;4351570;32;20517;-70
2021/07/27 03:21:21;;;;;;;5.55;2.80;;;20.50;82.10;;;;;;4351863;32;20086;-71
2021/07/27 03:23:50;;;;;;;5.65;2.87;;;20.60;82.00;;;;;;4351628;32;20070;-71
2021/07/27 03:26:17;;;;;;;7.18;2.97;;;20.50;82.90;;;;;;4377085;32;20066;-71
2021/07/27 03:28:44;;;;;;;5.32;2.55;;;20.50;81.50;;;;;;4375734;32;20543;-72
2021/07/27 03:31:10;;;;;;;4.55;2.95;;;20.50;83.30;;;;;;4362232;32;20472;-72
2021/07/27 03:33:37;;;;;;;6.50;3.10;;;20.70;82.20;;;;;;4363323;32;20089;-71
2021/07/27 03:36:04;;;;;;;3.30;2.62;;;20.80;82.30;;;;;;4350877;32;20085;-71
2021/07/27 03:38:31;;;;;;;4.60;3.12;;;20.80;78.60;;;;;;4363512;32;20511;-71
2021/07/27 03:41:09;;;;;;;4.03;2.80;;;20.70;77.90;;;;;;4351547;32;20512;-70
2021/07/27 03:43:35;;;;;;;7.85;3.22;;;20.80;80.30;;;;;;4351536;32;20086;-71
2021/07/27 03:46:04;;;;;;;7.37;2.58;;;20.50;84.20;;;;;;4375580;32;20162;-71
2021/07/27 03:48:30;;;;;;;5.50;3.00;;;20.60;86.00;;;;;;4363543;32;20097;-71
2021/07/27 03:50:57;;;;;;;4.35;2.97;;;20.70;84.20;;;;;;4363099;32;20074;-71
2021/07/27 03:53:26;;;;;;;7.25;2.97;;;20.80;85.40;;;;;;4350569;32;20681;-70
2021/07/27 03:55:53;;;;;;;3.85;2.60;;;20.90;82.40;;;;;;4375218;32;20089;-72
2021/07/27 03:58:19;;;;;;;4.37;2.62;;;20.90;79.10;;;;;;4375257;32;20077;-71
2021/07/27 04:00:46;;;;;;;4.53;3.10;;;21.10;78.90;;;;;;4351038;32;20092;-71
2021/07/27 04:03:13;;;;;;;4.78;2.75;;;21.20;76.60;;;;;;4350794;32;20162;-71
2021/07/27 04:05:45;;;;;;;4.20;2.35;;;21.30;76.20;;;;;;4362975;32;20146;-69
2021/07/27 04:08:12;;;;;;;3.95;2.95;;;21.30;76.20;;;;;;4351637;32;20089;-71
2021/07/27 04:10:39;;;;;;;6.47;2.75;;;21.30;77.20;;;;;;4350405;32;20160;-71
2021/07/27 04:13:05;;;;;;;7.35;2.70;;;21.20;76.50;;;;;;4362891;32;20145;-70
2021/07/27 04:15:39;;;;;;;4.00;2.37;;;21.30;75.80;;;;;;4363135;32;20078;-69
2021/07/27 04:18:05;;;;;;;6.15;2.33;;;21.40;73.60;;;;;;4363481;32;20102;-71
2021/07/27 04:20:31;;;;;;;4.40;2.80;;;21.60;72.50;;;;;;4363090;32;20074;-71
2021/07/27 04:22:57;;;;;;;5.12;2.95;;;21.50;74.10;;;;;;4375532;32;20085;-71
2021/07/27 04:25:23;;;;;;;7.50;2.90;;;21.60;74.30;;;;;;4350741;32;20092;-71
2021/07/27 04:27:51;;;;;;;4.20;2.72;;;21.60;75.00;;;;;;4376080;32;20145;-71
2021/07/27 04:30:17;;;;;;;3.85;2.92;;;21.90;71.90;;;;;;4350083;32;20081;-71
2021/07/27 04:32:44;;;;;;;4.43;2.75;;;21.80;71.10;;;;;;4376300;32;20095;-71
2021/07/27 04:35:10;;;;;;;4.55;2.87;;;22.00;71.40;;;;;;4374663;32;20070;-71
2021/07/27 04:37:37;;;;;;;6.37;3.10;;;21.70;71.40;;;;;;4350309;32;20086;-71
2021/07/27 04:40:03;;;;;;;8.38;2.78;;;21.80;69.20;;;;;;4363096;32;20074;-71
2021/07/27 04:42:30;;;;;;;5.22;2.67;;;22.00;66.80;;;;;;4361836;32;20508;-70
2021/07/27 04:44:56;;;;;;;7.40;3.30;;;22.10;61.30;;;;;;4376469;32;20163;-71
2021/07/27 04:47:25;;;;;;;7.20;3.30;;;22.50;61.60;;;;;;4374735;32;20090;-71
2021/07/27 04:49:51;;;;;;;4.45;2.65;;;22.60;60.30;;;;;;4362667;32;20089;-71
2021/07/27 04:52:21;;;;;;;12.02;4.40;;;22.80;59.90;;;;;;4374725;32;20069;-71
2021/07/27 04:54:55;;;;;;;5.03;2.70;;;23.10;60.70;;;;;;4351430;32;20085;-71
2021/07/27 04:57:21;;;;;;;4.90;2.85;;;22.90;59.80;;;;;;4376010;32;20098;-71
2021/07/27 04:59:47;;;;;;;6.00;3.05;;;23.10;58.10;;;;;;4362412;32;20082;-71
2021/07/27 05:02:13;;;;;;;6.32;3.17;;;24.50;55.20;;;;;;4349848;32;20141;-71
2021/07/27 05:04:41;;;;;;;3.87;2.78;;;23.90;55.10;;;;;;4350147;32;20066;-71
2021/07/27 05:07:09;;;;;;;4.90;2.70;;;24.00;54.20;;;;;;4350832;32;20080;-71
2021/07/27 05:09:36;;;;;;;5.72;3.10;;;23.40;48.40;;;;;;4374765;32;20090;-70
2021/07/27 05:12:02;;;;;;;3.83;2.60;;;23.90;46.40;;;;;;4376048;32;20157;-71
2021/07/27 05:14:29;;;;;;;5.32;2.87;;;24.30;44.80;;;;;;4374703;32;20075;-71
2021/07/27 05:16:55;;;;;;;4.30;3.03;;;24.80;43.20;;;;;;4349980;32;20086;-71
2021/07/27 05:19:22;;;;;;;4.20;2.80;;;24.30;43.80;;;;;;4374569;32;20090;-72
2021/07/27 05:21:52;;;;;;;6.45;2.65;;;24.30;42.40;;;;;;4350357;32;20090;-72
2021/07/27 05:24:19;;;;;;;3.50;2.40;;;23.90;44.90;;;;;;4351329;32;20078;-72
2021/07/27 05:26:45;;;;;;;6.22;2.50;;;23.80;45.20;;;;;;4376148;32;20075;-69
2021/07/27 05:29:11;;;;;;;4.05;2.20;;;24.50;43.40;;;;;;4375951;32;20074;-68
2021/07/27 05:31:38;;;;;;;5.53;2.85;;;25.20;41.60;;;;;;4361852;32;20171;-68
2021/07/27 05:34:07;;;;;;;5.95;2.80;;;25.10;40.70;;;;;;4362513;32;20437;-69
2021/07/27 05:36:34;;;;;;;4.00;2.58;;;25.40;39.00;;;;;;4374542;32;20067;-69
2021/07/27 05:39:00;;;;;;;5.97;2.47;;;25.60;38.90;;;;;;4362288;32;20086;-70
2021/07/27 05:41:27;;;;;;;5.43;2.78;;;26.40;37.40;;;;;;4374556;32;20096;-68
2021/07/27 05:43:53;;;;;;;3.20;2.50;;;25.80;38.30;;;;;;4361833;32;20472;-69
2021/07/27 05:46:19;;;;;;;5.85;2.70;;;26.30;36.80;;;;;;4349532;32;20161;-70
2021/07/27 05:48:46;;;;;;;3.20;2.40;;;27.20;33.80;;;;;;4374388;32;20516;-69
2021/07/27 05:51:14;;;;;;;3.55;2.50;;;26.00;35.60;;;;;;4362087;32;20093;-68
2021/07/27 05:53:41;;;;;;;4.03;2.47;;;26.00;36.80;;;;;;4350256;32;20085;-68
2021/07/27 05:56:08;;;;;;;3.72;2.67;;;26.40;35.60;;;;;;4364724;32;20081;-69
2021/07/27 05:58:34;;;;;;;6.90;2.78;;;25.60;37.30;;;;;;4377334;32;20078;-68
2021/07/27 06:01:00;;;;;;;4.97;2.78;;;25.40;38.90;;;;;;4364262;32;20069;-71
2021/07/27 06:03:27;;;;;;;4.62;2.47;;;25.80;38.10;;;;;;4364549;32;20448;-71
2021/07/27 06:05:53;;;;;;;6.40;2.78;;;26.50;36.10;;;;;;4376807;32;20074;-71
2021/07/27 06:08:19;;;;;;;7.20;2.50;;;27.40;33.80;;;;;;4352377;32;20606;-72
2021/07/27 06:10:45;;;;;;;5.62;2.40;;;27.00;35.40;;;;;;4352013;32;20479;-71
2021/07/27 06:13:11;;;;;;;6.40;2.87;;;26.50;34.90;;;;;;4364887;32;20079;-71
2021/07/27 06:15:37;;;;;;;5.62;2.75;;;26.80;35.10;;;;;;4364295;32;20523;-71
2021/07/27 06:18:03;;;;;;;4.62;2.85;;;26.70;34.50;;;;;;4377142;32;20089;-71
2021/07/27 06:20:30;;;;;;;5.68;2.83;;;27.60;31.80;;;;;;4376903;32;20154;-71
2021/07/27 06:22:56;;;;;;;5.12;2.30;;;27.50;33.70;;;;;;4364095;32;20493;-71
2021/07/27 06:25:22;;;;;;;4.20;2.70;;;26.90;32.90;;;;;;4364257;32;20083;-71
2021/07/27 06:27:48;;;;;;;6.72;2.75;;;26.60;33.30;;;;;;4376330;32;20078;-71
2021/07/27 06:30:15;;;;;;;6.25;2.67;;;26.90;32.80;;;;;;4376421;32;20433;-70
2021/07/27 06:32:41;;;;;;;4.07;2.83;;;26.50;34.00;;;;;;4376841;32;20081;-72
2021/07/27 06:35:08;;;;;;;2.50;2.25;;;25.80;36.30;;;;;;4376431;32;20133;-73
2021/07/27 06:37:34;;;;;;;5.37;2.55;;;25.80;36.20;;;;;;4363773;32;20085;-73
2021/07/27 06:40:00;;;;;;;6.78;3.15;;;25.60;36.10;;;;;;4351838;32;20070;-74
2021/07/27 06:42:26;;;;;;;4.65;2.55;;;25.80;36.30;;;;;;4376425;32;20089;-75
2021/07/27 06:44:52;;;;;;;5.25;2.50;;;25.90;36.00;;;;;;4376244;32;20087;-75
2021/07/27 06:47:18;;;;;;;4.05;2.58;;;26.00;36.10;;;;;;4364223;32;20158;-73
2021/07/27 06:49:45;;;;;;;2.90;2.37;;;26.20;36.10;;;;;;4363882;32;20158;-72
2021/07/27 06:52:11;;;;;;;2.75;2.45;;;26.00;36.30;;;;;;4376039;32;20075;-73
2021/07/27 06:54:37;;;;;;;4.57;2.90;;;26.10;36.40;;;;;;4375875;32;20153;-73
2021/07/27 06:57:03;;;;;;;9.45;2.90;;;26.10;36.60;;;;;;4363459;32;20162;-71
2021/07/27 06:59:29;;;;;;;5.82;2.65;;;26.20;34.40;;;;;;4351479;32;20602;-72
2021/07/27 07:01:55;;;;;;;7.93;2.95;;;26.80;34.20;;;;;;4351274;32;20082;-72
2021/07/27 07:04:22;;;;;;;4.93;2.37;;;26.40;34.70;;;;;;4376178;32;20515;-73
2021/07/27 07:06:48;;;;;;;5.30;2.83;;;26.30;33.40;;;;;;4377529;32;20083;-73
2021/07/27 07:09:14;;;;;;;3.60;2.35;;;26.50;34.70;;;;;;4375829;32;20077;-72
2021/07/27 07:11:40;;;;;;;3.70;2.42;;;26.40;33.40;;;;;;4376124;32;20109;-74
2021/07/27 07:14:06;;;;;;;5.12;2.58;;;26.30;34.70;;;;;;4375836;32;20086;-72
2021/07/27 07:16:32;;;;;;;9.73;2.85;;;26.40;34.40;;;;;;4375790;32;20082;-73
2021/07/27 07:18:59;;;;;;;4.25;2.58;;;26.50;34.00;;;;;;4367829;32;20069;-72
2021/07/27 07:21:25;;;;;;;5.07;2.62;;;26.50;34.10;;;;;;4364498;32;20453;-71
2021/07/27 07:23:51;;;;;;;6.18;2.50;;;25.80;34.70;;;;;;4390463;32;20168;-72
2021/07/27 07:26:17;;;;;;;4.07;2.87;;;25.80;35.00;;;;;;4390655;32;20515;-71
2021/07/27 07:28:43;;;;;;;5.00;3.12;;;26.10;34.10;;;;;;4369023;32;20100;-71
2021/07/27 07:31:12;;;;;;;4.53;2.70;;;25.80;34.50;;;;;;4366898;32;20078;-68
2021/07/27 07:33:38;;;;;;;5.57;2.83;;;25.80;34.60;;;;;;4347062;32;20161;-67
2021/07/27 07:36:14;;;;;;;3.87;2.97;;;26.00;35.80;;;;;;4354446;32;20541;-68
2021/07/27 07:38:41;;;;;;;2.90;2.53;;;26.00;34.30;;;;;;4339645;32;20082;-68
2021/07/27 07:41:09;;;;;;;3.97;3.03;;;26.00;34.40;;;;;;4368574;32;20101;-65
2021/07/27 07:43:36;;;;;;;2.92;2.50;;;26.00;34.00;;;;;;4358745;32;20113;-67
2021/07/27 07:46:02;;;;;;;3.28;2.55;;;25.70;34.30;;;;;;4348016;32;20081;-65
2021/07/27 07:48:28;;;;;;;4.93;2.70;;;26.20;33.80;;;;;;4371903;32;20109;-64
2021/07/27 07:50:55;;;;;;;4.68;2.90;;;26.60;34.20;;;;;;4367269;32;20074;-65
2021/07/27 07:53:21;;;;;;;4.40;3.08;;;26.70;33.30;;;;;;4371503;32;20110;-67
2021/07/27 07:55:48;;;;;;;4.70;2.62;;;26.90;32.20;;;;;;4367480;32;20090;-65
2021/07/27 07:58:14;;;;;;;6.47;3.00;;;27.00;32.10;;;;;;4373662;32;20137;-65
2021/07/27 08:00:40;;;;;;;3.15;2.72;;;26.90;32.50;;;;;;4369427;32;20097;-64
2021/07/27 08:03:07;;;;;;;6.18;2.95;;;26.50;31.40;;;;;;4360848;32;20073;-64
2021/07/27 08:05:33;;;;;;;3.40;2.50;;;26.50;31.90;;;;;;4336981;32;20097;-69
2021/07/27 08:07:59;;;;;;;3.45;2.65;;;26.00;32.90;;;;;;4383722;32;20047;-67
2021/07/27 08:10:26;;;;;;;6.47;2.70;;;26.10;34.40;;;;;;4361946;32;20143;-65
2021/07/27 08:12:52;;;;;;;2.95;2.30;;;26.30;32.50;;;;;;4381546;32;20097;-70
2021/07/27 08:15:24;;;;;;;6.70;2.97;;;26.20;32.70;;;;;;4384252;32;20066;-66
2021/07/27 08:17:50;;;;;;;5.12;2.83;;;26.20;32.90;;;;;;4357738;32;20239;-65
2021/07/27 08:20:16;;;;;;;7.07;2.50;;;26.50;33.00;;;;;;4364223;32;20085;-62
2021/07/27 08:22:43;;;;;;;5.12;2.58;;;26.50;33.40;;;;;;4348899;32;20169;-65
2021/07/27 08:25:17;;;;;;;6.62;2.70;;;26.00;34.00;;;;;;4351450;32;20499;-66
2021/07/27 08:27:44;;;;;;;7.68;2.80;;;26.00;34.60;;;;;;4376182;32;20066;-65
2021/07/27 08:30:13;;;;;;;5.00;2.60;;;26.50;33.30;;;;;;4362186;32;20081;-67
2021/07/27 08:32:50;;;;;;;2.80;2.50;;;26.20;33.80;;;;;;4374149;32;20081;-65
2021/07/27 08:35:18;;;;;;;5.62;2.80;;;26.70;33.60;;;;;;4352212;32;20174;-65
2021/07/27 08:37:45;;;;;;;5.70;3.10;;;25.90;34.60;;;;;;4352962;32;20078;-64
2021/07/27 08:40:12;;;;;;;4.80;2.70;;;26.80;33.90;;;;;;4371979;32;20089;-65
2021/07/27 08:42:40;;;;;;;4.07;2.80;;;26.50;33.40;;;;;;4376029;32;20507;-67
2021/07/27 08:45:06;;;;;;;3.42;2.78;;;26.60;32.40;;;;;;4368109;32;20062;-66
2021/07/27 08:47:33;;;;;;;4.37;2.50;;;26.50;32.90;;;;;;4376530;32;20556;-66
2021/07/27 08:50:09;;;;;;;3.35;2.42;;;27.10;32.00;;;;;;4382727;32;20136;-66
2021/07/27 08:52:35;;;;;;;5.57;3.03;;;27.60;31.30;;;;;;4356472;32;20105;-67
2021/07/27 08:55:06;;;;;;;4.70;2.67;;;27.80;30.70;;;;;;4393570;32;20085;-67
2021/07/27 08:57:32;;;;;;;9.27;3.17;;;26.90;31.30;;;;;;4348248;32;20135;-66
2021/07/27 08:59:59;;;;;;;6.05;2.90;;;27.40;30.70;;;;;;4387971;32;20164;-66
2021/07/27 09:02:29;;;;;;;4.28;2.80;;;27.60;31.10;;;;;;4372934;32;20124;-66
2021/07/27 09:05:11;;;;;;;6.53;2.87;;;28.30;30.40;;;;;;4382528;32;20524;-66
2021/07/27 09:07:38;;;;;;;4.78;2.83;;;28.00;29.80;;;;;;4372806;32;20109;-64
2021/07/27 09:10:33;;;;;;;3.53;2.45;;;28.10;29.60;;;;;;4358690;32;20106;-63
2021/07/27 09:13:13;;;;;;;5.10;2.85;;;27.80;29.70;;;;;;4376493;32;20108;-70
2021/07/27 09:15:45;;;;;;;4.60;2.80;;;27.80;29.80;;;;;;4362958;32;20066;-64
2021/07/27 09:18:21;;;;;;;4.43;3.12;;;28.30;29.50;;;;;;4354855;32;20105;-63
2021/07/27 09:20:51;;;;;;;7.90;2.90;;;27.90;29.80;;;;;;4370872;32;20074;-66
2021/07/27 09:23:26;;;;;;;6.30;2.97;;;27.60;30.20;;;;;;4377735;32;20529;-75
2021/07/27 09:25:58;;;;;;;3.45;2.70;;;28.00;29.10;;;;;;4358221;32;20198;-71
2021/07/27 09:28:25;;;;;;;6.07;2.65;;;28.10;29.20;;;;;;4378149;32;20432;-71
2021/07/27 09:31:00;;;;;;;4.50;2.70;;;28.00;29.80;;;;;;4368451;32;20090;-67
2021/07/27 09:33:33;;;;;;;3.78;2.78;;;27.90;28.70;;;;;;4380509;32;20070;-65
2021/07/27 09:36:00;;;;;;;3.30;2.60;;;28.20;28.90;;;;;;4373540;32;20070;-70
2021/07/27 09:38:29;;;;;;;5.47;3.12;;;28.10;29.20;;;;;;4365316;32;20100;-66
2021/07/27 09:41:04;;;;;;;4.70;2.33;;;28.00;29.00;;;;;;4374808;32;20150;-67
2021/07/27 09:43:31;;;;;;;4.50;2.55;;;27.70;29.20;;;;;;4365760;32;20130;-68
2021/07/27 09:46:01;;;;;;;6.07;3.75;;;27.70;29.70;;;;;;4373441;32;20159;-66
2021/07/27 09:48:29;;;;;;;6.62;3.20;;;28.00;29.30;;;;;;4372491;32;20162;-63
2021/07/27 09:50:56;;;;;;;5.18;3.62;;;27.70;29.50;;;;;;4365971;32;20113;-66
2021/07/27 09:53:23;;;;;;;5.07;2.75;;;27.90;28.40;;;;;;4382345;32;20186;-69
2021/07/27 09:55:53;;;;;;;5.68;2.80;;;27.80;29.30;;;;;;4358983;32;20598;-67
2021/07/27 09:58:19;;;;;;;5.60;3.22;;;27.90;28.30;;;;;;4384119;32;20500;-68
2021/07/27 10:00:59;;;;;;;3.92;2.85;;;27.80;28.90;;;;;;4382747;32;20074;-67
2021/07/27 10:03:26;;;;;;;5.12;2.85;;;27.60;28.50;;;;;;4368112;32;20579;-68
2021/07/27 10:06:02;;;;;;;3.42;2.70;;;28.20;28.00;;;;;;4370138;32;20086;-70
2021/07/27 10:08:33;;;;;;;4.60;2.80;;;27.60;28.10;;;;;;4363978;32;20120;-68
2021/07/27 10:11:13;;;;;;;5.47;2.62;;;28.20;29.10;;;;;;4360181;32;20080;-71
2021/07/27 10:13:45;;;;;;;4.28;2.50;;;27.90;29.20;;;;;;4352438;32;20105;-67
2021/07/27 10:16:41;;;;;;;4.87;2.83;;;27.70;28.60;;;;;;4354337;32;20150;-68
2021/07/27 10:19:16;;;;;;;4.75;2.60;;;27.60;28.70;;;;;;4373297;32;20141;-70
2021/07/27 10:21:43;;;;;;;8.55;3.58;;;28.40;29.00;;;;;;4376434;32;20091;-70
2021/07/27 10:24:20;;;;;;;3.53;2.70;;;28.50;28.10;;;;;;4370457;32;20129;-72
2021/07/27 10:26:46;;;;;;;4.18;2.72;;;28.00;27.50;;;;;;4375939;32;20081;-69
2021/07/27 10:29:13;;;;;;;4.03;2.85;;;27.40;27.80;;;;;;4345188;32;20100;-74
2021/07/27 10:31:42;;;;;;;4.97;2.55;;;27.80;27.90;;;;;;4380606;32;20066;-71
2021/07/27 10:34:09;;;;;;;6.72;2.90;;;27.60;28.50;;;;;;4366200;32;20094;-73
2021/07/27 10:36:38;;;;;;;4.30;2.90;;;27.40;28.30;;;;;;4345287;32;20600;-72
2021/07/27 10:39:09;;;;;;;4.10;2.55;;;28.10;28.10;;;;;;4362626;32;20085;-74
2021/07/27 10:41:53;;;;;;;7.80;2.40;;;28.40;27.50;;;;;;4368956;32;20071;-69
2021/07/27 10:44:20;;;;;;;6.35;2.78;;;28.70;27.00;;;;;;4372652;32;20088;-66
2021/07/27 10:46:49;;;;;;;3.62;2.60;;;28.40;27.00;;;;;;4356984;32;20086;-65
2021/07/27 10:49:17;;;;;;;5.40;2.80;;;28.00;27.60;;;;;;4352012;32;20066;-72
2021/07/27 10:51:45;;;;;;;3.53;2.80;;;28.60;27.40;;;;;;4378530;32;20069;-65
2021/07/27 10:54:14;;;;;;;7.62;4.07;;;27.90;27.70;;;;;;4374901;32;20075;-65
2021/07/27 10:56:42;;;;;;;2.58;2.30;;;27.70;27.90;;;;;;4372693;32;20077;-67
2021/07/27 10:59:08;;;;;;;6.32;3.00;;;27.40;28.20;;;;;;4361742;32;20069;-64
2021/07/27 11:01:35;;;;;;;5.57;2.80;;;27.80;28.30;;;;;;4360636;32;20082;-68
2021/07/27 11:04:10;;;;;;;4.70;2.90;;;27.90;27.30;;;;;;4361506;32;20101;-67
2021/07/27 11:06:37;;;;;;;5.07;2.97;;;27.40;28.00;;;;;;4365686;32;20163;-68
2021/07/27 11:09:05;;;;;;;3.60;2.42;;;27.50;28.10;;;;;;4350200;32;20193;-65
2021/07/27 11:11:43;;;;;;;2.92;2.40;;;27.60;28.30;;;;;;4368407;32;20255;-65
2021/07/27 11:14:09;;;;;;;4.75;2.75;;;27.30;28.40;;;;;;4363408;32;20516;-63
2021/07/27 11:16:42;;;;;;;4.32;2.60;;;27.70;27.90;;;;;;4387820;32;20475;-62
2021/07/27 11:19:22;;;;;;;5.68;2.60;;;28.10;27.90;;;;;;4368312;32;20057;-64
2021/07/27 11:21:49;;;;;;;8.32;2.65;;;28.10;26.60;;;;;;4359174;32;20093;-64
2021/07/27 11:24:16;;;;;;;4.07;2.30;;;28.10;27.60;;;;;;4361110;32;20070;-68
2021/07/27 11:26:42;;;;;;;3.70;2.35;;;27.90;27.20;;;;;;4351544;32;20255;-65
2021/07/27 11:29:11;;;;;;;4.47;2.33;;;28.20;26.60;;;;;;4370903;32;20074;-70
2021/07/27 11:31:51;;;;;;;4.07;2.65;;;28.30;26.50;;;;;;4377612;32;20093;-67
2021/07/27 11:34:28;;;;;;;3.90;2.55;;;28.50;26.60;;;;;;4361018;32;20074;-65
2021/07/27 11:36:54;;;;;;;5.50;2.70;;;28.50;26.80;;;;;;4361185;32;20101;-66
2021/07/27 11:39:21;;;;;;;3.40;2.60;;;28.60;26.70;;;;;;4356267;32;20435;-66
2021/07/27 11:42:01;;;;;;;8.35;3.12;;;29.30;25.80;;;;;;4362122;32;20497;-65
2021/07/27 11:44:28;;;;;;;4.50;2.80;;;28.20;26.70;;;;;;4363345;32;20097;-65
2021/07/27 11:46:54;;;;;;;4.78;3.08;;;28.00;27.90;;;;;;4375215;32;20066;-64
2021/07/27 11:49:21;;;;;;;4.80;2.72;;;27.60;28.00;;;;;;4375497;32;20089;-64
2021/07/27 11:51:47;;;;;;;3.22;2.40;;;27.60;28.70;;;;;;4349770;32;20074;-65
2021/07/27 11:54:24;;;;;;;3.08;2.40;;;27.70;28.70;;;;;;4362642;32;20594;-64
2021/07/27 11:56:51;;;;;;;3.20;2.30;;;27.90;28.50;;;;;;4362607;32;20070;-65
2021/07/27 11:59:28;;;;;;;4.80;2.60;;;27.90;27.80;;;;;;4375015;32;20504;-64
2021/07/27 12:01:54;;;;;;;1.60;1.20;;;27.80;28.30;;;;;;4375280;32;20538;-65
2021/07/27 12:04:20;;;;;;;4.20;2.55;;;28.00;27.90;;;;;;4375659;32;20081;-64
2021/07/27 12:06:51;;;;;;;6.25;2.72;;;28.50;27.40;;;;;;4363060;32;20062;-66
2021/07/27 12:09:20;;;;;;;11.35;2.60;;;28.40;27.30;;;;;;4375179;32;20463;-66
2021/07/27 12:11:46;;;;;;;5.10;2.90;;;28.80;27.00;;;;;;4374720;32;20078;-66
2021/07/27 12:14:12;;;;;;;4.55;2.75;;;28.90;27.00;;;;;;4375184;32;20097;-65
2021/07/27 12:16:38;;;;;;;4.22;2.47;;;28.70;26.40;;;;;;4375550;32;20081;-65
2021/07/27 12:19:05;;;;;;;5.60;2.45;;;28.00;27.10;;;;;;4350849;32;20065;-66
2021/07/27 12:21:31;;;;;;;5.22;2.60;;;28.40;28.00;;;;;;4363172;32;20089;-65
2021/07/27 12:23:57;;;;;;;5.97;2.90;;;28.40;27.70;;;;;;4362992;32;20086;-65
2021/07/27 12:26:23;;;;;;;4.93;3.00;;;28.20;28.30;;;;;;4376625;32;20577;-65
2021/07/27 12:28:49;;;;;;;3.67;2.83;;;28.30;28.00;;;;;;4362245;32;20476;-66
2021/07/27 12:31:16;;;;;;;4.57;2.97;;;28.70;27.90;;;;;;4374711;32;20117;-64
2021/07/27 12:33:42;;;;;;;3.03;2.37;;;29.40;27.10;;;;;;4374875;32;20084;-64
2021/07/27 12:36:08;;;;;;;3.85;2.60;;;28.50;27.60;;;;;;4375332;32;20074;-64
2021/07/27 12:38:34;;;;;;;5.45;2.20;;;28.30;27.60;;;;;;4375144;32;20502;-65
2021/07/27 12:41:01;;;;;;;5.90;2.53;;;28.50;28.00;;;;;;4374855;32;20070;-65
2021/07/27 12:43:27;;;;;;;5.12;2.65;;;28.40;27.70;;;;;;4374877;32;20078;-64
2021/07/27 12:45:53;;;;;;;4.70;2.80;;;28.60;27.30;;;;;;4375260;32;20182;-63
2021/07/27 12:48:19;;;;;;;4.55;2.75;;;28.50;27.30;;;;;;4374858;32;20153;-64
2021/07/27 12:50:45;;;;;;;3.60;2.60;;;28.60;27.30;;;;;;4374818;32;20080;-64
2021/07/27 12:53:11;;;;;;;2.67;2.40;;;28.50;27.10;;;;;;4362412;32;20160;-63
2021/07/27 12:55:38;;;;;;;3.45;2.60;;;28.50;26.90;;;;;;4374756;32;20085;-64
2021/07/27 12:58:04;;;;;;;3.50;2.20;;;28.60;27.20;;;;;;4374536;32;20074;-62
2021/07/27 13:00:31;;;;;;;4.70;2.70;;;28.60;27.30;;;;;;4362447;32;20512;-63
2021/07/27 13:02:57;;;;;;;6.47;2.62;;;28.50;27.10;;;;;;4362479;32;20083;-63
2021/07/27 13:05:23;;;;;;;3.28;2.47;;;28.20;27.80;;;;;;4365505;32;20101;-63
2021/07/27 13:07:49;;;;;;;5.80;2.80;;;28.30;27.40;;;;;;4378920;32;20162;-63
2021/07/27 13:10:15;;;;;;;3.53;2.40;;;28.80;26.90;;;;;;4365454;32;20093;-61
2021/07/27 13:12:41;;;;;;;6.50;2.78;;;28.80;27.00;;;;;;4377639;32;20493;-63
2021/07/27 13:15:08;;;;;;;4.75;2.62;;;28.80;27.10;;;;;;4365479;32;20086;-64